createdAt,value
2022-10-01T00:01:48.796Z,11.19
2022-10-01T00:06:52.576Z,11.12
2022-10-01T00:11:59.761Z,11.11
2022-10-01T00:17:03.540Z,11.17
2022-10-01T00:22:07.172Z,11.17
2022-10-01T00:27:12.548Z,11.17
2022-10-01T00:32:16.627Z,11.11
2022-10-01T00:37:22.235Z,11.13
2022-10-01T00:42:28.239Z,11.15
2022-10-01T00:47:35.975Z,11.16
2022-10-01T00:52:42.952Z,10.98
2022-10-01T00:57:48.447Z,10.88
2022-10-01T01:02:52.607Z,10.79
2022-10-01T01:07:56.370Z,10.77
2022-10-01T01:13:12.921Z,10.79
2022-10-01T01:18:22.335Z,10.81
2022-10-01T01:23:41.814Z,10.83
2022-10-01T01:28:51.557Z,10.88
2022-10-01T01:33:58.826Z,10.87
2022-10-01T01:39:05.503Z,10.82
2022-10-01T01:44:16.804Z,10.85
2022-10-01T01:49:21.216Z,10.86
2022-10-01T01:54:25.434Z,10.82
2022-10-01T01:59:31.585Z,10.88
2022-10-01T02:04:38.536Z,10.86
2022-10-01T02:09:52.241Z,10.79
2022-10-01T02:15:06.398Z,10.82
2022-10-01T02:20:21.176Z,10.80
2022-10-01T02:25:28.832Z,10.85
2022-10-01T02:30:36.598Z,10.87
2022-10-01T02:35:42.145Z,10.91
2022-10-01T02:40:48.513Z,10.89
2022-10-01T02:45:58.575Z,10.89
2022-10-01T02:51:15.804Z,10.96
2022-10-01T02:56:48.350Z,10.97
2022-10-01T03:01:54.052Z,11.00
2022-10-01T03:07:03.356Z,10.99
2022-10-01T03:12:07.762Z,11.02
2022-10-01T03:17:13.691Z,11.04
2022-10-01T03:22:20.796Z,11.09
2022-10-01T03:27:24.484Z,11.17
2022-10-01T03:32:29.542Z,11.19
2022-10-01T03:37:33.271Z,11.21
2022-10-01T03:42:37.025Z,11.23
2022-10-01T03:47:42.035Z,11.29
2022-10-01T03:52:47.141Z,11.36
2022-10-01T03:57:50.936Z,11.41
2022-10-01T04:02:56.013Z,11.43
2022-10-01T04:08:00.968Z,11.51
2022-10-01T04:13:05.267Z,11.60
2022-10-01T04:18:10.639Z,11.65
2022-10-01T04:23:14.300Z,11.68
2022-10-01T04:28:18.318Z,11.71
2022-10-01T04:33:23.414Z,11.78
2022-10-01T04:38:27.210Z,11.84
2022-10-01T04:43:30.947Z,11.89
2022-10-01T04:48:36.021Z,11.92
2022-10-01T04:53:39.716Z,11.94
2022-10-01T04:58:43.363Z,11.98
2022-10-01T05:03:48.503Z,12.01
2022-10-01T05:08:52.559Z,12.04
2022-10-01T05:13:56.424Z,12.04
2022-10-01T05:19:01.427Z,12.06
2022-10-01T05:24:05.577Z,12.12
2022-10-01T05:29:09.342Z,12.15
2022-10-01T05:34:14.431Z,12.15
2022-10-01T05:39:18.108Z,12.17
2022-10-01T05:44:21.771Z,12.23
2022-10-01T05:49:26.923Z,12.20
2022-10-01T05:54:30.606Z,12.19
2022-10-01T05:59:34.300Z,12.19
2022-10-01T06:04:41.261Z,12.24
2022-10-01T06:09:45.310Z,12.28
2022-10-01T06:14:48.943Z,12.27
2022-10-01T06:19:53.961Z,12.19
2022-10-01T06:24:57.752Z,12.17
2022-10-01T06:30:01.462Z,12.21
2022-10-01T06:35:07.714Z,12.29
2022-10-01T06:40:11.750Z,12.36
2022-10-01T06:45:15.858Z,12.42
2022-10-01T06:50:20.836Z,12.49
2022-10-01T06:55:29.045Z,12.57
2022-10-01T07:00:35.328Z,12.66
2022-10-01T07:05:40.989Z,12.84
2022-10-01T07:10:45.564Z,13.05
2022-10-01T07:15:49.324Z,13.19
2022-10-01T07:20:54.361Z,13.22
2022-10-01T07:25:58.953Z,13.22
2022-10-01T07:31:07.228Z,13.14
2022-10-01T07:36:13.735Z,13.09
2022-10-01T07:41:18.002Z,13.06
2022-10-01T07:46:21.851Z,13.09
2022-10-01T07:51:27.575Z,13.08
2022-10-01T07:56:31.404Z,13.18
2022-10-01T08:01:35.330Z,13.34
2022-10-01T08:06:40.575Z,13.48
2022-10-01T08:11:45.487Z,13.55
2022-10-01T08:16:49.227Z,13.61
2022-10-01T08:21:54.322Z,13.67
2022-10-01T08:26:58.192Z,13.68
2022-10-01T08:32:02.264Z,13.83
2022-10-01T08:37:07.425Z,13.89
2022-10-01T08:42:22.203Z,13.92
2022-10-01T08:47:32.396Z,13.93
2022-10-01T08:52:44.304Z,14.14
2022-10-01T08:57:53.115Z,14.17
2022-10-01T09:03:01.499Z,14.26
2022-10-01T09:08:15.464Z,14.51
2022-10-01T09:13:54.422Z,14.70
2022-10-01T09:19:16.257Z,14.89
2022-10-01T09:24:38.219Z,15.11
2022-10-01T09:29:48.558Z,15.31
2022-10-01T09:34:53.697Z,15.41
2022-10-01T09:40:14.786Z,15.50
2022-10-01T09:45:19.678Z,15.85
2022-10-01T09:50:31.944Z,16.24
2022-10-01T09:55:41.760Z,16.41
2022-10-01T10:00:48.343Z,16.66
2022-10-01T10:05:52.650Z,16.21
2022-10-01T10:11:01.411Z,16.13
2022-10-01T10:16:11.059Z,16.52
2022-10-01T10:21:19.545Z,16.88
2022-10-01T10:26:32.501Z,17.52
2022-10-01T10:31:42.146Z,17.11
2022-10-01T10:36:47.234Z,16.34
2022-10-01T10:41:53.944Z,16.07
2022-10-01T10:47:03.427Z,16.49
2022-10-01T10:52:20.521Z,17.84
2022-10-01T10:57:28.835Z,19.03
2022-10-01T11:02:34.007Z,19.75
2022-10-01T11:07:37.824Z,20.13
2022-10-01T11:12:56.664Z,20.29
2022-10-01T11:18:22.201Z,19.82
2022-10-01T11:23:53.468Z,19.33
2022-10-01T11:29:11.934Z,18.72
2022-10-01T11:34:39.864Z,18.27
2022-10-01T11:39:45.954Z,18.05
2022-10-01T11:45:00.815Z,20.27
2022-10-01T11:50:09.219Z,21.43
2022-10-01T11:55:34.451Z,22.54
2022-10-01T12:00:43.115Z,22.98
2022-10-01T12:05:47.672Z,23.69
2022-10-01T12:10:58.845Z,24.20
2022-10-01T12:16:13.489Z,21.93
2022-10-01T12:21:22.146Z,22.22
2022-10-01T12:26:37.873Z,24.20
2022-10-01T12:31:50.177Z,24.81
2022-10-01T12:37:10.125Z,25.88
2022-10-01T12:42:35.244Z,26.92
2022-10-01T12:47:48.277Z,25.62
2022-10-01T12:53:03.055Z,25.53
2022-10-01T12:58:20.619Z,23.78
2022-10-01T13:04:01.144Z,22.97
2022-10-01T13:09:17.567Z,22.36
2022-10-01T13:14:22.590Z,21.72
2022-10-01T13:19:35.858Z,20.79
2022-10-01T13:24:43.215Z,20.40
2022-10-01T13:29:55.448Z,20.90
2022-10-01T13:35:03.605Z,20.98
2022-10-01T13:40:23.921Z,23.32
2022-10-01T13:45:30.928Z,23.33
2022-10-01T13:50:36.060Z,24.74
2022-10-01T13:55:43.016Z,25.63
2022-10-01T14:00:49.776Z,25.80
2022-10-01T14:05:57.994Z,26.72
2022-10-01T14:11:23.525Z,26.08
2022-10-01T14:16:27.373Z,26.80
2022-10-01T14:21:43.875Z,26.16
2022-10-01T14:26:53.903Z,26.97
2022-10-01T14:32:06.210Z,26.96
2022-10-01T14:37:17.198Z,27.22
2022-10-01T14:42:21.311Z,27.64
2022-10-01T14:47:27.855Z,27.04
2022-10-01T14:52:33.765Z,26.61
2022-10-01T14:57:40.651Z,26.56
2022-10-01T15:02:49.478Z,26.27
2022-10-01T15:07:54.574Z,26.48
2022-10-01T15:12:58.400Z,27.43
2022-10-01T15:18:05.334Z,27.31
2022-10-01T15:23:13.215Z,27.02
2022-10-01T15:28:25.978Z,25.80
2022-10-01T15:33:32.091Z,25.59
2022-10-01T15:38:37.575Z,25.85
2022-10-01T15:43:42.074Z,25.47
2022-10-01T15:48:46.492Z,24.70
2022-10-01T15:53:52.963Z,24.34
2022-10-01T15:59:00.979Z,23.51
2022-10-01T16:04:09.038Z,22.53
2022-10-01T16:09:18.212Z,21.75
2022-10-01T16:14:29.242Z,21.04
2022-10-01T16:19:33.176Z,20.80
2022-10-01T16:24:45.629Z,20.66
2022-10-01T16:29:55.814Z,20.41
2022-10-01T16:35:17.186Z,20.03
2022-10-01T16:40:23.854Z,19.76
2022-10-01T16:45:29.316Z,19.41
2022-10-01T16:50:33.103Z,19.36
2022-10-01T16:55:38.448Z,19.12
2022-10-01T17:00:42.820Z,19.07
2022-10-01T17:05:46.764Z,18.95
2022-10-01T17:10:58.573Z,18.53
2022-10-01T17:16:04.886Z,18.62
2022-10-01T17:21:10.515Z,18.52
2022-10-01T17:26:15.572Z,18.33
2022-10-01T17:31:19.307Z,18.25
2022-10-01T17:36:23.028Z,17.82
2022-10-01T17:41:28.458Z,17.97
2022-10-01T17:46:32.293Z,17.83
2022-10-01T17:51:36.287Z,17.62
2022-10-01T17:56:42.087Z,17.59
2022-10-01T18:01:46.062Z,17.40
2022-10-01T18:06:52.253Z,17.28
2022-10-01T18:11:57.318Z,17.18
2022-10-01T18:17:01.229Z,16.63
2022-10-01T18:22:13.732Z,16.48
2022-10-01T18:27:19.245Z,16.63
2022-10-01T18:32:25.127Z,16.59
2022-10-01T18:37:37.778Z,16.44
2022-10-01T18:42:49.416Z,16.12
2022-10-01T18:48:08.074Z,15.89
2022-10-01T18:53:24.861Z,15.82
2022-10-01T18:58:46.755Z,15.84
2022-10-01T19:04:30.137Z,15.55
2022-10-01T19:09:44.891Z,15.64
2022-10-01T19:15:01.547Z,15.57
2022-10-01T19:20:16.977Z,15.33
2022-10-01T19:25:27.647Z,15.26
2022-10-01T19:30:42.316Z,15.16
2022-10-01T19:35:53.176Z,15.11
2022-10-01T19:41:00.344Z,14.96
2022-10-01T19:46:12.750Z,14.90
2022-10-01T19:51:22.784Z,14.63
2022-10-01T19:56:29.413Z,14.74
2022-10-01T20:01:39.596Z,14.78
2022-10-01T20:06:47.376Z,14.86
2022-10-01T20:12:00.499Z,14.77
2022-10-01T20:17:16.183Z,14.90
2022-10-01T20:22:26.688Z,14.91
2022-10-01T20:27:38.304Z,14.75
2022-10-01T20:32:51.802Z,14.70
2022-10-01T20:38:09.789Z,14.79
2022-10-01T20:43:18.782Z,14.71
2022-10-01T20:48:28.236Z,14.49
2022-10-01T20:53:38.898Z,14.49
2022-10-01T20:58:49.167Z,14.48
2022-10-01T21:04:01.441Z,14.43
2022-10-01T21:09:15.916Z,14.42
2022-10-01T21:14:25.234Z,14.38
2022-10-01T21:19:48.278Z,14.32
2022-10-01T21:24:59.355Z,14.21
2022-10-01T21:30:11.811Z,14.17
2022-10-01T21:35:26.865Z,14.21
2022-10-01T21:40:43.109Z,14.14
2022-10-01T21:45:55.088Z,13.91
2022-10-01T21:51:06.288Z,13.89
2022-10-01T21:56:24.955Z,13.71
2022-10-01T22:01:46.271Z,13.78
2022-10-01T22:06:58.235Z,13.72
2022-10-01T22:12:03.437Z,13.74
2022-10-01T22:17:14.790Z,13.61
2022-10-01T22:22:24.043Z,13.60
2022-10-01T22:27:34.175Z,13.60
2022-10-01T22:32:44.436Z,13.56
2022-10-01T22:37:54.811Z,13.57
2022-10-01T22:43:04.877Z,13.52
2022-10-01T22:48:21.331Z,13.51
2022-10-01T22:53:46.448Z,13.53
2022-10-01T22:59:08.689Z,13.47
2022-10-01T23:04:33.120Z,13.53
2022-10-01T23:09:46.677Z,13.55
2022-10-01T23:15:00.680Z,13.58
2022-10-01T23:20:14.127Z,13.61
2022-10-01T23:25:25.786Z,13.62
2022-10-01T23:30:37.853Z,13.55
2022-10-01T23:35:49.256Z,13.43
2022-10-01T23:40:57.775Z,13.52
2022-10-01T23:46:06.384Z,13.55
2022-10-01T23:51:18.411Z,13.45
2022-10-01T23:56:45.538Z,13.40
